createdAt,value
2023-01-31T00:03:07.812Z,100756.56
2023-01-31T00:08:09.428Z,100736.75
2023-01-31T00:13:11.031Z,100749.84
2023-01-31T00:18:12.716Z,100754.81
2023-01-31T00:23:14.346Z,100755.13
2023-01-31T00:28:16.028Z,100746.75
2023-01-31T00:33:17.628Z,100750.31
2023-01-31T00:38:19.207Z,100757.06
2023-01-31T00:43:21.349Z,100775.88
2023-01-31T00:48:23.251Z,100774.06
2023-01-31T00:53:25.840Z,100765.44
2023-01-31T00:58:27.476Z,100775.88
2023-01-31T01:03:29.052Z,100769.16
2023-01-31T01:08:31.265Z,100767.63
2023-01-31T01:13:33.549Z,100765.13
2023-01-31T01:18:36.278Z,100773.81
2023-01-31T01:23:38.781Z,100778.88
2023-01-31T01:28:40.406Z,100786.63
2023-01-31T01:33:42.841Z,100785.69
2023-01-31T01:38:45.657Z,100783.63
2023-01-31T01:43:55.811Z,100784.50
2023-01-31T01:49:31.277Z,100781.19
2023-01-31T01:54:49.563Z,100784.97
2023-01-31T02:00:14.936Z,100770.50
2023-01-31T02:05:22.122Z,100772.13
2023-01-31T02:10:51.174Z,100774.09
2023-01-31T02:15:52.977Z,100769.88
2023-01-31T02:21:20.972Z,100771.59
2023-01-31T02:26:44.044Z,100776.63
2023-01-31T02:32:12.925Z,100763.31
2023-01-31T02:37:36.906Z,100766.56
2023-01-31T02:42:54.107Z,100769.94
2023-01-31T02:47:58.347Z,100770.81
2023-01-31T02:53:28.452Z,100770.03
2023-01-31T02:58:36.718Z,100785.53
2023-01-31T03:03:38.667Z,100780.41
2023-01-31T03:08:44.659Z,100784.06
2023-01-31T03:14:10.245Z,100789.41
2023-01-31T03:19:17.541Z,100794.66
2023-01-31T03:24:22.107Z,100795.47
2023-01-31T03:29:25.095Z,100796.50
2023-01-31T03:34:27.750Z,100806.06
2023-01-31T03:39:39.010Z,100793.09
2023-01-31T03:44:53.398Z,100801.19
2023-01-31T03:49:59.064Z,100803.47
2023-01-31T03:55:09.087Z,100800.09
2023-01-31T04:00:15.158Z,100803.59
2023-01-31T04:05:21.903Z,100797.59
2023-01-31T04:10:24.361Z,100790.72
2023-01-31T04:15:26.027Z,100796.00
2023-01-31T04:20:27.668Z,100778.81
2023-01-31T04:25:31.770Z,100781.53
2023-01-31T04:30:34.372Z,100778.09
2023-01-31T04:35:36.521Z,100772.16
2023-01-31T04:40:38.169Z,100773.88
2023-01-31T04:45:39.772Z,100773.22
2023-01-31T04:50:41.462Z,100783.50
2023-01-31T04:55:43.110Z,100777.44
2023-01-31T05:00:45.102Z,100781.81
2023-01-31T05:05:50.840Z,100779.34
2023-01-31T05:11:01.625Z,100777.56
2023-01-31T05:16:08.532Z,100769.81
2023-01-31T05:21:11.158Z,100763.81
2023-01-31T05:26:12.856Z,100762.88
2023-01-31T05:31:14.578Z,100758.50
2023-01-31T05:36:16.221Z,100749.91
2023-01-31T05:41:17.812Z,100752.66
2023-01-31T05:46:19.399Z,100751.88
2023-01-31T05:51:21.102Z,100745.97
2023-01-31T05:56:23.545Z,100752.88
2023-01-31T06:01:27.191Z,100748.56
2023-01-31T06:06:28.786Z,100752.03
2023-01-31T06:11:30.882Z,100752.09
2023-01-31T06:16:33.196Z,100759.78
2023-01-31T06:21:35.230Z,100766.66
2023-01-31T06:26:36.904Z,100770.97
2023-01-31T06:31:38.696Z,100768.38
2023-01-31T06:36:40.409Z,100758.97
2023-01-31T06:41:42.095Z,100765.06
2023-01-31T06:46:43.702Z,100773.63
2023-01-31T06:51:45.334Z,100783.06
2023-01-31T06:56:47.439Z,100776.13
2023-01-31T07:01:49.129Z,100775.03
2023-01-31T07:06:50.817Z,100780.88
2023-01-31T07:11:52.438Z,100784.34
2023-01-31T07:16:54.050Z,100779.13
2023-01-31T07:21:56.192Z,100780.84
2023-01-31T07:26:57.888Z,100764.50
2023-01-31T07:31:59.518Z,100763.63
2023-01-31T07:37:01.374Z,100760.94
2023-01-31T07:42:03.005Z,100749.69
2023-01-31T07:47:04.587Z,100762.47
2023-01-31T07:52:08.454Z,100761.47
2023-01-31T07:57:10.150Z,100760.53
2023-01-31T08:02:35.465Z,100765.63
2023-01-31T08:07:37.428Z,100756.25
2023-01-31T08:12:39.025Z,100755.38
2023-01-31T08:17:40.594Z,100752.84
2023-01-31T08:22:42.173Z,100749.88
2023-01-31T08:27:44.186Z,100725.06
2023-01-31T08:32:45.934Z,100721.97
2023-01-31T08:37:47.617Z,100711.13
2023-01-31T08:42:55.198Z,100720.97
2023-01-31T08:47:59.033Z,100716.75
2023-01-31T08:53:02.964Z,100714.09
2023-01-31T08:58:04.745Z,100736.38
2023-01-31T09:03:06.448Z,100742.09
2023-01-31T09:08:08.123Z,100749.19
2023-01-31T09:13:10.466Z,100752.44
2023-01-31T09:18:12.080Z,100736.34
2023-01-31T09:23:13.840Z,100721.06
2023-01-31T09:28:15.419Z,100716.56
2023-01-31T09:33:17.276Z,100714.06
2023-01-31T09:38:18.885Z,100712.25
2023-01-31T09:43:23.910Z,100720.97
2023-01-31T09:48:29.760Z,100726.59
2023-01-31T09:53:35.169Z,100729.41
2023-01-31T09:58:49.838Z,100727.53
2023-01-31T10:03:57.301Z,100710.97
2023-01-31T10:09:10.813Z,100747.53
2023-01-31T10:14:37.280Z,100719.34
2023-01-31T10:20:17.435Z,100702.59
2023-01-31T10:25:19.038Z,100697.88
2023-01-31T10:30:27.826Z,100693.69
2023-01-31T10:35:39.542Z,100689.44
2023-01-31T10:40:45.403Z,100678.16
2023-01-31T10:45:47.025Z,100673.47
2023-01-31T10:51:25.695Z,100655.28
2023-01-31T10:56:41.972Z,100652.38
2023-01-31T11:01:45.332Z,100641.06
2023-01-31T11:06:47.125Z,100646.66
2023-01-31T11:12:02.118Z,100638.84
2023-01-31T11:17:18.804Z,100625.88
2023-01-31T11:22:31.216Z,100622.47
2023-01-31T11:27:42.770Z,100598.88
2023-01-31T11:32:45.035Z,100589.19
2023-01-31T11:38:12.823Z,100580.91
2023-01-31T11:43:14.847Z,100595.09
2023-01-31T11:48:23.457Z,100573.53
2023-01-31T11:53:45.367Z,100541.41
2023-01-31T11:58:52.975Z,100547.34
2023-01-31T12:04:05.744Z,100544.53
2023-01-31T12:09:23.352Z,100536.13
2023-01-31T12:14:37.467Z,100517.94
2023-01-31T12:20:00.029Z,100496.91
2023-01-31T12:25:07.734Z,100496.97
2023-01-31T12:30:21.540Z,100471.38
2023-01-31T12:35:40.249Z,100469.88
2023-01-31T12:41:29.654Z,100452.22
2023-01-31T12:46:41.045Z,100445.25
2023-01-31T12:51:51.749Z,100414.09
2023-01-31T12:56:59.443Z,100422.72
2023-01-31T13:02:01.001Z,100404.53
2023-01-31T13:07:28.788Z,100410.50
2023-01-31T13:12:35.785Z,100407.41
2023-01-31T13:17:40.720Z,100394.31
2023-01-31T13:22:53.295Z,100410.00
2023-01-31T13:28:01.195Z,100407.66
2023-01-31T13:33:29.150Z,100410.75
2023-01-31T13:38:38.790Z,100406.56
2023-01-31T13:43:40.391Z,100412.53
2023-01-31T13:48:49.160Z,100405.84
2023-01-31T13:54:16.021Z,100403.66
2023-01-31T13:59:23.537Z,100397.28
2023-01-31T14:04:34.887Z,100394.63
2023-01-31T14:09:42.138Z,100401.56
2023-01-31T14:14:57.127Z,100395.56
2023-01-31T14:20:00.347Z,100392.56
2023-01-31T14:25:07.178Z,100394.16
2023-01-31T14:30:11.361Z,100385.19
2023-01-31T14:35:12.988Z,100384.22
2023-01-31T14:40:34.177Z,100375.00
2023-01-31T14:45:54.232Z,100373.00
2023-01-31T14:51:19.899Z,100366.72
2023-01-31T14:56:40.136Z,100362.47
2023-01-31T15:01:41.856Z,100364.41
2023-01-31T15:06:44.482Z,100367.19
2023-01-31T15:11:47.402Z,100385.94
2023-01-31T15:16:57.900Z,100387.09
2023-01-31T15:22:11.555Z,100391.78
2023-01-31T15:27:25.437Z,100404.59
2023-01-31T15:32:40.581Z,100387.09
2023-01-31T15:37:42.908Z,100379.56
2023-01-31T15:42:44.551Z,100379.72
2023-01-31T15:48:00.759Z,100383.03
2023-01-31T15:53:07.152Z,100379.78
2023-01-31T15:58:18.907Z,100390.94
2023-01-31T16:03:23.961Z,100395.84
2023-01-31T16:08:25.550Z,100399.47
2023-01-31T16:13:28.077Z,100400.44
2023-01-31T16:18:30.118Z,100412.41
2023-01-31T16:23:38.339Z,100407.00
2023-01-31T16:28:57.199Z,100415.06
2023-01-31T16:34:01.561Z,100416.94
2023-01-31T16:39:06.337Z,100437.50
2023-01-31T16:44:14.725Z,100431.22
2023-01-31T16:49:28.657Z,100444.34
2023-01-31T16:54:31.344Z,100440.41
2023-01-31T16:59:38.847Z,100429.63
2023-01-31T17:04:45.716Z,100428.13
2023-01-31T17:09:48.416Z,100425.81
2023-01-31T17:14:50.163Z,100438.47
2023-01-31T17:19:51.787Z,100428.13
2023-01-31T17:24:53.633Z,100427.31
2023-01-31T17:29:55.245Z,100436.75
2023-01-31T17:34:56.822Z,100442.03
2023-01-31T17:39:58.731Z,100438.38
2023-01-31T17:45:00.359Z,100427.84
2023-01-31T17:50:02.011Z,100431.34
2023-01-31T17:55:03.651Z,100435.63
2023-01-31T18:00:07.070Z,100432.16
2023-01-31T18:05:09.924Z,100442.69
2023-01-31T18:10:11.811Z,100438.31
2023-01-31T18:15:13.608Z,100452.94
2023-01-31T18:20:15.404Z,100455.91
2023-01-31T18:25:17.044Z,100462.50
2023-01-31T18:30:19.153Z,100456.34
2023-01-31T18:35:21.605Z,100442.81
2023-01-31T18:40:24.367Z,100450.53
2023-01-31T18:45:26.793Z,100450.22
2023-01-31T18:50:30.754Z,100445.34
2023-01-31T18:55:32.816Z,100444.44
2023-01-31T19:00:34.486Z,100441.44
2023-01-31T19:05:37.295Z,100432.81
2023-01-31T19:10:38.887Z,100432.28
2023-01-31T19:15:40.480Z,100437.41
2023-01-31T19:20:42.102Z,100438.84
2023-01-31T19:25:43.994Z,100438.97
2023-01-31T19:30:45.588Z,100425.22
2023-01-31T19:35:47.370Z,100419.69
2023-01-31T19:40:51.701Z,100426.00
2023-01-31T19:45:53.382Z,100418.06
2023-01-31T19:50:57.235Z,100423.03
2023-01-31T19:55:58.996Z,100419.47
2023-01-31T20:01:11.997Z,100426.25
2023-01-31T20:06:17.939Z,100447.94
2023-01-31T20:11:19.839Z,100461.25
2023-01-31T20:16:22.220Z,100450.09
2023-01-31T20:21:23.939Z,100457.28
2023-01-31T20:26:27.861Z,100458.19
2023-01-31T20:31:30.737Z,100463.38
2023-01-31T20:36:32.416Z,100496.19
2023-01-31T20:41:34.017Z,100478.59
2023-01-31T20:46:35.606Z,100487.28
2023-01-31T20:51:37.246Z,100486.47
2023-01-31T20:56:39.452Z,100497.69
2023-01-31T21:01:43.217Z,100478.91
2023-01-31T21:06:44.984Z,100487.50
2023-01-31T21:11:46.667Z,100489.28
2023-01-31T21:16:49.439Z,100475.53
2023-01-31T21:21:51.111Z,100467.09
2023-01-31T21:26:52.936Z,100468.81
2023-01-31T21:31:56.016Z,100459.81
2023-01-31T21:36:59.250Z,100450.44
2023-01-31T21:42:16.379Z,100456.88
2023-01-31T21:47:18.182Z,100461.28
2023-01-31T21:52:19.861Z,100454.44
2023-01-31T21:57:21.838Z,100442.28
2023-01-31T22:02:23.507Z,100440.72
2023-01-31T22:07:25.485Z,100430.91
2023-01-31T22:12:27.230Z,100425.09
2023-01-31T22:17:29.553Z,100413.41
2023-01-31T22:22:31.749Z,100428.97
2023-01-31T22:27:33.395Z,100430.69
2023-01-31T22:32:35.107Z,100421.03
2023-01-31T22:37:36.801Z,100421.41
2023-01-31T22:42:38.808Z,100423.19
2023-01-31T22:47:41.923Z,100413.06
2023-01-31T22:52:43.679Z,100408.00
2023-01-31T22:57:45.385Z,100400.28
2023-01-31T23:02:47.476Z,100388.16
2023-01-31T23:07:49.064Z,100379.91
2023-01-31T23:12:50.739Z,100372.34
2023-01-31T23:17:52.335Z,100377.41
2023-01-31T23:22:55.737Z,100372.88
2023-01-31T23:27:57.485Z,100382.44
2023-01-31T23:32:59.101Z,100366.63
2023-01-31T23:38:00.739Z,100359.69
2023-01-31T23:43:02.913Z,100363.97
2023-01-31T23:48:04.769Z,100371.66
2023-01-31T23:53:06.399Z,100364.03
2023-01-31T23:58:07.991Z,100354.25
